Time;durP1;ratioP1;P1;durP2;ratioP2;P2;SDS_P1;SDS_P2;PMS_P1;PMS_P2;Temp;Humidity;BMP_temperature;BMP_pressure;BME280_temperature;BME280_humidity;BME280_pressure;Samples;Min_cycle;Max_cycle;Signal;HPM_P1;HPM_P2
2021/07/23 00:01:55;;;;;;;7.53;6.22;;;25.70;99.90;;;;;;5072273;28;20252;-74
2021/07/23 00:04:22;;;;;;;6.97;5.10;;;25.70;99.90;;;;;;5073094;28;20263;-72
2021/07/23 00:06:49;;;;;;;7.40;5.38;;;25.70;99.90;;;;;;5072561;28;20222;-73
2021/07/23 00:09:16;;;;;;;6.10;5.38;;;25.60;99.90;;;;;;5072905;28;20206;-73
2021/07/23 00:11:43;;;;;;;7.30;5.97;;;25.60;99.90;;;;;;5072062;28;20202;-75
2021/07/23 00:14:10;;;;;;;7.47;6.25;;;25.60;99.90;;;;;;5072438;28;20206;-73
2021/07/23 00:16:38;;;;;;;7.38;5.45;;;25.50;99.90;;;;;;5073001;28;20202;-74
2021/07/23 00:19:06;;;;;;;5.70;5.20;;;25.50;99.90;;;;;;5072835;28;20721;-74
2021/07/23 00:21:33;;;;;;;6.07;5.47;;;25.40;99.90;;;;;;5058508;28;20206;-73
2021/07/23 00:24:00;;;;;;;5.72;5.22;;;25.30;99.90;;;;;;5063252;28;20202;-73
2021/07/23 00:26:27;;;;;;;6.22;5.45;;;25.40;99.90;;;;;;5071252;28;20616;-75
2021/07/23 00:28:54;;;;;;;7.55;5.18;;;25.30;99.90;;;;;;5072612;28;20206;-73
2021/07/23 00:31:21;;;;;;;7.20;5.15;;;25.20;99.90;;;;;;5072145;28;20233;-74
2021/07/23 00:33:48;;;;;;;7.03;5.25;;;25.20;99.90;;;;;;5072652;28;20202;-75
2021/07/23 00:36:16;;;;;;;5.57;5.05;;;25.10;99.90;;;;;;5071942;28;20275;-72
2021/07/23 00:38:43;;;;;;;6.28;4.90;;;25.10;99.90;;;;;;5072322;28;20206;-73
2021/07/23 00:41:10;;;;;;;6.15;5.28;;;25.00;99.90;;;;;;5072466;28;20254;-72
2021/07/23 00:43:37;;;;;;;6.32;5.72;;;25.00;99.90;;;;;;5070792;28;20668;-72
2021/07/23 00:46:04;;;;;;;5.40;4.90;;;25.00;99.90;;;;;;5071606;28;20210;-72
2021/07/23 00:48:31;;;;;;;6.18;4.82;;;25.00;99.90;;;;;;5072324;28;20210;-73
2021/07/23 00:50:58;;;;;;;6.85;5.72;;;24.90;99.90;;;;;;5072303;28;20543;-72
2021/07/23 00:53:27;;;;;;;8.48;4.85;;;24.90;99.90;;;;;;5071724;28;20210;-72
2021/07/23 00:55:55;;;;;;;5.32;4.82;;;24.80;99.90;;;;;;5071854;28;20728;-72
2021/07/23 00:58:23;;;;;;;6.55;5.72;;;24.80;99.90;;;;;;5071919;28;20206;-73
2021/07/23 01:00:52;;;;;;;9.02;6.30;;;24.70;99.90;;;;;;5071732;28;20214;-74
2021/07/23 01:03:19;;;;;;;5.80;5.20;;;24.70;99.90;;;;;;5072049;28;20202;-71
2021/07/23 01:05:47;;;;;;;7.43;5.30;;;24.60;99.90;;;;;;5071505;28;20260;-72
2021/07/23 01:08:14;;;;;;;9.70;5.72;;;24.50;99.90;;;;;;5070946;28;20720;-73
2021/07/23 01:10:43;;;;;;;5.07;4.57;;;24.50;99.90;;;;;;5071509;28;20678;-73
2021/07/23 01:13:11;;;;;;;6.00;5.43;;;24.50;99.90;;;;;;5060139;28;20217;-72
2021/07/23 01:15:39;;;;;;;5.82;5.32;;;24.50;99.90;;;;;;5072357;28;20206;-73
2021/07/23 01:18:06;;;;;;;6.85;5.57;;;24.50;99.90;;;;;;5071753;28;20202;-73
2021/07/23 01:20:33;;;;;;;7.53;4.78;;;24.50;99.90;;;;;;5071380;28;20263;-74
2021/07/23 01:23:02;;;;;;;6.80;4.78;;;24.40;99.90;;;;;;5071373;28;20260;-73
2021/07/23 01:25:31;;;;;;;5.53;4.95;;;24.40;99.90;;;;;;5070661;28;20218;-74
2021/07/23 01:27:58;;;;;;;5.43;4.85;;;24.40;99.90;;;;;;5071489;28;20323;-73
2021/07/23 01:30:26;;;;;;;5.82;4.65;;;24.40;99.90;;;;;;5071141;28;20630;-72
2021/07/23 01:32:54;;;;;;;5.53;4.75;;;24.30;99.90;;;;;;5071683;28;20255;-72
2021/07/23 01:35:21;;;;;;;6.50;4.55;;;24.40;99.90;;;;;;5071146;28;20206;-73
2021/07/23 01:37:49;;;;;;;7.45;4.90;;;24.20;99.90;;;;;;5071050;28;20723;-71
2021/07/23 01:40:16;;;;;;;6.35;5.32;;;24.20;99.90;;;;;;5070401;28;20553;-73
2021/07/23 01:42:45;;;;;;;7.47;5.63;;;24.10;99.90;;;;;;5071090;28;20203;-71
2021/07/23 01:45:13;;;;;;;6.25;5.22;;;24.10;99.90;;;;;;5070805;28;20234;-73
2021/07/23 01:47:40;;;;;;;6.43;5.82;;;24.00;99.90;;;;;;5070739;28;20229;-70
2021/07/23 01:50:08;;;;;;;5.75;4.95;;;24.00;99.90;;;;;;5071486;28;20289;-74
2021/07/23 01:52:35;;;;;;;5.90;5.30;;;24.00;99.90;;;;;;5070967;28;20673;-72
2021/07/23 01:55:02;;;;;;;4.75;4.35;;;24.00;99.90;;;;;;5071089;28;20236;-73
2021/07/23 01:57:30;;;;;;;5.18;4.68;;;24.00;99.90;;;;;;5070696;28;20441;-74
2021/07/23 01:59:58;;;;;;;6.30;5.70;;;24.00;99.90;;;;;;5071205;28;20205;-75
2021/07/23 02:02:25;;;;;;;5.57;5.03;;;24.00;99.90;;;;;;5070379;28;20210;-72
2021/07/23 02:04:52;;;;;;;7.10;4.82;;;24.00;99.90;;;;;;5070529;28;20351;-72
2021/07/23 02:07:19;;;;;;;5.93;5.43;;;23.90;99.90;;;;;;5069962;28;20553;-75
2021/07/23 02:09:46;;;;;;;5.82;5.10;;;23.90;99.90;;;;;;5070930;28;20271;-74
2021/07/23 02:12:13;;;;;;;6.03;4.85;;;23.80;99.90;;;;;;5069738;28;20658;-72
2021/07/23 02:14:40;;;;;;;5.00;4.50;;;23.80;99.90;;;;;;5057787;28;20638;-71
2021/07/23 02:17:08;;;;;;;5.80;4.93;;;23.80;99.90;;;;;;5070955;28;20268;-72
2021/07/23 02:19:35;;;;;;;5.03;4.53;;;23.80;99.90;;;;;;5070279;28;20689;-73
2021/07/23 02:22:02;;;;;;;6.03;4.80;;;23.80;99.90;;;;;;5070482;28;20236;-73
2021/07/23 02:24:29;;;;;;;5.45;5.03;;;23.80;99.90;;;;;;5069250;28;20209;-74
2021/07/23 02:26:56;;;;;;;7.43;4.40;;;23.80;99.90;;;;;;5070581;28;20226;-72
2021/07/23 02:29:23;;;;;;;9.57;5.53;;;23.70;99.90;;;;;;5070100;28;20247;-74
2021/07/23 02:31:50;;;;;;;9.00;5.88;;;23.70;99.90;;;;;;5069794;28;20259;-72
2021/07/23 02:34:19;;;;;;;5.15;4.65;;;23.70;99.90;;;;;;5069981;28;20239;-74
2021/07/23 02:36:46;;;;;;;6.75;5.40;;;23.70;99.90;;;;;;5070613;28;20214;-74
2021/07/23 02:39:12;;;;;;;8.10;4.88;;;23.50;99.90;;;;;;5070118;28;20210;-72
2021/07/23 02:41:39;;;;;;;5.22;4.72;;;23.50;99.90;;;;;;5070030;28;20620;-73
2021/07/23 02:44:06;;;;;;;4.57;4.18;;;23.70;99.90;;;;;;5070356;28;20739;-72
2021/07/23 02:46:33;;;;;;;5.00;4.50;;;23.70;99.90;;;;;;5069934;28;20197;-72
2021/07/23 02:49:00;;;;;;;4.43;4.03;;;23.60;99.90;;;;;;5070350;28;20682;-72
2021/07/23 02:51:29;;;;;;;5.38;4.88;;;23.60;99.90;;;;;;5069455;28;20260;-73
2021/07/23 02:53:56;;;;;;;5.72;4.90;;;23.60;99.90;;;;;;5070322;28;20252;-73
2021/07/23 02:56:23;;;;;;;5.70;4.80;;;23.60;99.90;;;;;;5069826;28;20206;-73
2021/07/23 02:58:50;;;;;;;7.82;5.28;;;23.60;99.90;;;;;;5070190;28;20747;-73
2021/07/23 03:01:16;;;;;;;8.85;5.18;;;23.50;99.90;;;;;;5069880;28;20206;-71
2021/07/23 03:03:43;;;;;;;7.95;5.43;;;23.50;99.90;;;;;;5070132;28;20255;-73
2021/07/23 03:06:10;;;;;;;7.38;4.95;;;23.50;99.90;;;;;;5070090;28;20202;-74
2021/07/23 03:08:39;;;;;;;6.95;4.70;;;23.40;99.90;;;;;;5070582;28;20238;-73
2021/07/23 03:11:06;;;;;;;5.85;5.30;;;23.40;99.90;;;;;;5070136;28;20259;-73
2021/07/23 03:13:33;;;;;;;8.70;6.35;;;23.30;99.90;;;;;;5069326;28;20260;-73
2021/07/23 03:15:59;;;;;;;7.22;5.60;;;23.30;99.90;;;;;;5070165;28;20206;-72
2021/07/23 03:18:26;;;;;;;5.72;5.15;;;23.40;99.90;;;;;;5069856;28;20627;-74
2021/07/23 03:20:53;;;;;;;6.65;5.47;;;23.40;99.90;;;;;;5069579;28;20576;-74
2021/07/23 03:23:20;;;;;;;6.97;5.25;;;23.30;99.90;;;;;;5069660;28;20554;-73
2021/07/23 03:25:49;;;;;;;5.57;5.03;;;23.30;99.90;;;;;;5070026;28;20214;-71
2021/07/23 03:28:16;;;;;;;6.63;5.40;;;23.40;99.90;;;;;;5069307;28;20238;-73
2021/07/23 03:30:42;;;;;;;7.45;5.82;;;23.30;99.90;;;;;;5069680;28;20743;-74
2021/07/23 03:33:09;;;;;;;6.68;6.07;;;23.30;99.90;;;;;;5069270;28;20206;-73
2021/07/23 03:35:36;;;;;;;7.68;5.72;;;23.30;99.90;;;;;;5072841;28;20257;-74
2021/07/23 03:38:04;;;;;;;6.20;5.70;;;23.20;99.90;;;;;;5074009;28;20198;-73
2021/07/23 03:40:30;;;;;;;6.85;5.95;;;23.20;99.90;;;;;;5073125;28;20623;-72
2021/07/23 03:42:59;;;;;;;7.47;5.50;;;23.20;99.90;;;;;;5073517;28;20202;-70
2021/07/23 03:45:26;;;;;;;6.95;6.25;;;23.20;99.90;;;;;;5073561;28;20202;-70
2021/07/23 03:47:53;;;;;;;8.15;5.85;;;23.10;99.90;;;;;;5073000;28;20283;-70
2021/07/23 03:50:20;;;;;;;8.02;5.53;;;23.10;99.90;;;;;;5073177;28;20624;-71
2021/07/23 03:52:47;;;;;;;9.05;6.88;;;23.10;99.90;;;;;;5073151;28;20628;-72
2021/07/23 03:55:14;;;;;;;9.23;6.60;;;23.10;99.90;;;;;;5072729;28;20206;-72
2021/07/23 03:57:41;;;;;;;7.97;7.28;;;23.00;99.90;;;;;;5073080;28;20241;-71
2021/07/23 04:00:11;;;;;;;8.85;5.68;;;22.90;99.90;;;;;;5073416;28;20206;-71
2021/07/23 04:02:38;;;;;;;9.20;6.90;;;23.00;99.90;;;;;;5072839;28;20206;-71
2021/07/23 04:05:06;;;;;;;7.65;6.40;;;23.00;99.90;;;;;;5073758;28;20206;-71
2021/07/23 04:07:33;;;;;;;6.68;5.50;;;22.90;99.90;;;;;;5072272;28;20296;-72
2021/07/23 04:10:01;;;;;;;9.23;6.35;;;22.90;99.90;;;;;;5073058;28;20202;-71
2021/07/23 04:12:28;;;;;;;8.80;6.20;;;23.00;99.90;;;;;;5072746;28;20236;-71
2021/07/23 04:14:55;;;;;;;6.93;6.22;;;22.90;99.90;;;;;;5072949;28;20206;-74
2021/07/23 04:17:23;;;;;;;8.30;6.30;;;22.90;99.90;;;;;;5072189;28;20214;-72
2021/07/23 04:19:50;;;;;;;7.22;6.53;;;22.90;99.90;;;;;;5072860;28;20263;-72
2021/07/23 04:22:17;;;;;;;6.97;6.28;;;22.90;99.90;;;;;;5071935;28;20218;-75
2021/07/23 04:24:45;;;;;;;8.45;6.72;;;22.80;99.90;;;;;;5072285;28;20256;-76
2021/07/23 04:27:13;;;;;;;6.25;5.75;;;22.90;99.90;;;;;;5072214;28;20209;-78
2021/07/23 04:29:40;;;;;;;7.18;6.22;;;22.90;99.90;;;;;;5072405;28;20198;-78
2021/07/23 04:32:08;;;;;;;6.28;5.78;;;23.00;99.90;;;;;;5071864;28;20297;-78
2021/07/23 04:34:36;;;;;;;7.60;6.57;;;23.10;99.90;;;;;;5070055;28;20211;-78
2021/07/23 04:37:04;;;;;;;6.47;5.82;;;23.00;99.90;;;;;;5072839;28;20232;-78
2021/07/23 04:39:31;;;;;;;8.07;6.65;;;23.10;99.90;;;;;;5070547;28;20259;-78
2021/07/23 04:41:58;;;;;;;9.07;6.45;;;22.80;99.90;;;;;;5070608;28;20693;-77
2021/07/23 04:44:25;;;;;;;6.90;5.38;;;22.90;99.90;;;;;;5072241;28;20202;-77
2021/07/23 04:46:51;;;;;;;7.47;6.15;;;22.80;99.90;;;;;;5071270;28;20255;-77
2021/07/23 04:49:18;;;;;;;7.15;6.30;;;22.60;99.90;;;;;;5072039;28;20237;-77
2021/07/23 04:51:47;;;;;;;10.52;6.57;;;22.60;99.90;;;;;;5070933;28;20271;-77
2021/07/23 04:54:14;;;;;;;7.53;6.38;;;22.70;99.90;;;;;;5070908;28;20214;-76
2021/07/23 04:56:41;;;;;;;8.68;6.88;;;22.60;99.90;;;;;;5071887;28;20210;-77
2021/07/23 04:59:08;;;;;;;8.13;6.90;;;22.60;99.90;;;;;;5072026;28;20206;-76
2021/07/23 05:01:35;;;;;;;7.45;6.78;;;22.70;99.90;;;;;;5071716;28;20206;-76
2021/07/23 05:04:02;;;;;;;6.80;6.07;;;22.60;99.90;;;;;;5071366;28;20213;-75
2021/07/23 05:06:29;;;;;;;7.28;6.35;;;22.80;99.90;;;;;;5071842;28;20288;-74
2021/07/23 05:08:58;;;;;;;9.43;6.78;;;23.00;99.90;;;;;;5071856;28;20307;-75
2021/07/23 05:11:25;;;;;;;6.30;5.78;;;23.20;99.90;;;;;;5070969;28;20206;-74
2021/07/23 05:13:52;;;;;;;6.63;5.97;;;23.30;99.90;;;;;;5071279;28;20232;-75
2021/07/23 05:16:19;;;;;;;9.30;5.50;;;23.40;99.90;;;;;;5070993;28;20213;-74
2021/07/23 05:18:47;;;;;;;8.45;7.25;;;23.50;99.90;;;;;;5070970;28;20202;-75
2021/07/23 05:21:14;;;;;;;8.20;5.72;;;23.50;99.90;;;;;;5071330;28;20557;-74
2021/07/23 05:23:42;;;;;;;8.00;7.28;;;23.40;99.90;;;;;;5071700;28;20202;-76
2021/07/23 05:26:11;;;;;;;5.72;5.25;;;23.40;99.90;;;;;;5071135;28;20214;-74
2021/07/23 05:28:38;;;;;;;7.15;5.72;;;23.40;99.90;;;;;;5070974;28;20245;-69
2021/07/23 05:31:05;;;;;;;6.60;6.10;;;23.40;99.90;;;;;;5070858;28;20203;-69
2021/07/23 05:33:33;;;;;;;6.93;5.38;;;23.30;99.90;;;;;;5070728;28;20260;-73
2021/07/23 05:36:00;;;;;;;6.70;5.57;;;23.30;99.90;;;;;;5071217;28;20202;-72
2021/07/23 05:38:27;;;;;;;8.40;6.15;;;23.20;99.90;;;;;;5070697;28;20579;-72
2021/07/23 05:40:53;;;;;;;7.47;6.68;;;23.20;99.90;;;;;;5071165;28;20252;-74
2021/07/23 05:43:22;;;;;;;7.55;5.40;;;23.30;99.90;;;;;;5067775;28;20680;-70
2021/07/23 05:45:49;;;;;;;6.85;6.15;;;23.50;99.90;;;;;;5070564;28;20289;-74
2021/07/23 05:48:16;;;;;;;8.40;6.13;;;23.60;99.90;;;;;;5070523;28;20222;-72
2021/07/23 05:50:43;;;;;;;5.63;5.03;;;23.60;99.90;;;;;;5070773;28;20260;-70
2021/07/23 05:53:10;;;;;;;15.20;6.32;;;23.50;99.90;;;;;;5070610;28;20206;-71
2021/07/23 05:55:37;;;;;;;9.27;6.35;;;23.60;99.90;;;;;;5071047;28;20210;-71
2021/07/23 05:58:04;;;;;;;7.45;5.22;;;23.60;99.90;;;;;;5069630;28;20210;-75
2021/07/23 06:00:33;;;;;;;7.63;5.43;;;23.70;99.90;;;;;;5066895;28;20210;-76
2021/07/23 06:03:03;;;;;;;7.63;5.43;;;23.70;99.90;;;;;;5070609;28;20247;-75
2021/07/23 06:05:31;;;;;;;8.05;6.97;;;23.80;99.90;;;;;;5068983;28;20636;-75
2021/07/23 06:07:57;;;;;;;5.85;5.18;;;23.90;99.90;;;;;;5068767;28;20661;-74
2021/07/23 06:10:25;;;;;;;6.30;5.70;;;24.00;99.90;;;;;;5070256;28;20626;-75
2021/07/23 06:12:52;;;;;;;8.88;6.45;;;24.00;99.90;;;;;;5070411;28;20617;-74
2021/07/23 06:15:19;;;;;;;6.60;5.55;;;24.10;99.90;;;;;;5066729;28;20241;-73
2021/07/23 06:17:47;;;;;;;6.07;5.45;;;24.20;99.90;;;;;;5067477;28;20214;-78
2021/07/23 06:20:14;;;;;;;5.90;5.10;;;24.40;99.90;;;;;;5069398;28;20347;-74
2021/07/23 06:22:41;;;;;;;6.07;5.35;;;24.40;99.90;;;;;;5070303;28;20267;-76
2021/07/23 06:25:09;;;;;;;5.30;4.90;;;24.40;99.90;;;;;;5070151;28;20646;-75
2021/07/23 06:27:37;;;;;;;7.20;5.85;;;24.50;99.90;;;;;;5070138;28;20206;-75
2021/07/23 06:30:04;;;;;;;6.45;5.35;;;24.70;99.90;;;;;;5068527;28;20210;-76
2021/07/23 06:32:31;;;;;;;5.22;4.80;;;24.90;99.90;;;;;;5069213;28;20210;-76
2021/07/23 06:35:00;;;;;;;7.53;5.07;;;25.10;99.90;;;;;;5069610;28;20263;-76
2021/07/23 06:37:27;;;;;;;7.43;4.45;;;24.90;99.90;;;;;;5069700;28;20206;-74
2021/07/23 06:39:54;;;;;;;5.43;4.90;;;24.90;99.90;;;;;;5068273;28;20202;-75
2021/07/23 06:42:21;;;;;;;6.38;5.25;;;25.10;99.90;;;;;;5068676;28;20214;-74
2021/07/23 06:44:49;;;;;;;5.22;4.45;;;25.20;99.90;;;;;;5070235;28;20245;-75
2021/07/23 06:47:15;;;;;;;6.35;5.72;;;25.20;99.90;;;;;;5070014;28;20202;-74
2021/07/23 06:49:42;;;;;;;8.23;4.80;;;25.40;99.90;;;;;;5070167;28;20234;-74
2021/07/23 06:52:11;;;;;;;6.20;5.30;;;25.60;99.90;;;;;;5068697;28;20206;-73
2021/07/23 06:54:38;;;;;;;6.32;4.53;;;25.30;99.90;;;;;;5069927;28;20236;-73
2021/07/23 06:57:06;;;;;;;4.93;4.40;;;25.60;99.90;;;;;;5068911;28;20206;-74
2021/07/23 06:59:33;;;;;;;5.90;5.13;;;25.50;99.90;;;;;;5069968;28;20212;-74
2021/07/23 07:02:01;;;;;;;5.97;5.45;;;25.80;99.90;;;;;;5063378;28;20358;-75
2021/07/23 07:04:28;;;;;;;7.28;6.50;;;25.70;99.90;;;;;;5063928;28;20292;-79
2021/07/23 07:06:55;;;;;;;6.70;6.10;;;25.80;99.90;;;;;;5070772;28;20244;-83
2021/07/23 07:09:25;;;;;;;5.97;5.38;;;25.80;99.90;;;;;;5069147;28;20605;-77
2021/07/23 07:11:52;;;;;;;9.95;7.05;;;25.90;99.90;;;;;;5070978;28;20214;-74
2021/07/23 07:14:22;;;;;;;10.55;7.05;;;25.90;99.90;;;;;;5070813;28;20744;-75
2021/07/23 07:16:49;;;;;;;6.95;6.35;;;25.80;99.90;;;;;;5071003;28;20299;-76
2021/07/23 07:19:16;;;;;;;9.18;6.60;;;25.90;99.90;;;;;;5063505;28;20233;-77
2021/07/23 07:21:48;;;;;;;7.30;6.00;;;26.10;99.90;;;;;;5067890;28;20205;-78
2021/07/23 07:24:16;;;;;;;8.05;7.35;;;26.50;99.90;;;;;;5069331;28;20203;-73
2021/07/23 07:26:45;;;;;;;8.82;7.30;;;26.70;99.90;;;;;;5073364;28;20222;-73
2021/07/23 07:29:12;;;;;;;7.30;6.63;;;26.10;99.90;;;;;;5073049;28;20233;-75
2021/07/23 07:31:39;;;;;;;7.20;6.28;;;26.20;99.90;;;;;;5072620;28;20202;-75
2021/07/23 07:34:07;;;;;;;8.63;7.63;;;26.10;99.90;;;;;;5073756;28;20673;-74
2021/07/23 07:36:34;;;;;;;9.07;7.47;;;25.90;99.90;;;;;;5072200;28;20206;-73
2021/07/23 07:39:02;;;;;;;10.32;8.10;;;25.80;99.90;;;;;;5063901;28;20210;-73
2021/07/23 07:41:29;;;;;;;8.40;7.45;;;25.70;99.90;;;;;;5072617;28;20214;-77
2021/07/23 07:43:58;;;;;;;9.75;8.52;;;25.70;99.90;;;;;;5072428;28;20610;-78
2021/07/23 07:46:25;;;;;;;9.55;8.48;;;26.10;99.90;;;;;;5073047;28;20260;-77
2021/07/23 07:48:52;;;;;;;9.85;7.38;;;26.30;99.90;;;;;;5067441;28;20226;-77
2021/07/23 07:51:19;;;;;;;9.30;8.25;;;26.60;99.90;;;;;;5072570;28;20241;-77
2021/07/23 07:53:46;;;;;;;15.40;8.18;;;26.50;99.90;;;;;;5070055;28;20211;-78
2021/07/23 07:56:14;;;;;;;8.90;7.90;;;26.50;99.90;;;;;;5072172;28;20254;-77
2021/07/23 07:58:42;;;;;;;10.43;8.68;;;26.60;99.90;;;;;;5072802;28;20235;-76
2021/07/23 08:01:11;;;;;;;13.98;8.82;;;27.10;99.90;;;;;;5072611;28;20244;-74
2021/07/23 08:03:39;;;;;;;9.98;8.00;;;27.50;99.90;;;;;;5072976;28;20677;-73
2021/07/23 08:06:07;;;;;;;8.25;7.50;;;27.40;99.90;;;;;;5063827;28;20214;-73
2021/07/23 08:08:34;;;;;;;10.13;8.80;;;27.30;99.90;;;;;;5072688;28;20230;-75
2021/07/23 08:11:01;;;;;;;17.95;9.27;;;27.40;99.90;;;;;;5068546;28;20198;-73
2021/07/23 08:13:28;;;;;;;10.35;8.23;;;27.20;99.90;;;;;;5066134;28;20218;-74
2021/07/23 08:15:56;;;;;;;8.18;7.38;;;27.30;99.90;;;;;;5072779;28;20202;-75
2021/07/23 08:18:25;;;;;;;11.55;7.72;;;27.20;99.90;;;;;;5062396;28;20317;-79
2021/07/23 08:20:52;;;;;;;9.55;8.65;;;27.20;99.90;;;;;;5077081;28;20209;-76
2021/07/23 08:23:20;;;;;;;9.07;8.15;;;27.00;99.90;;;;;;5066252;28;20204;-74
2021/07/23 08:25:47;;;;;;;7.82;7.03;;;27.50;99.90;;;;;;5083680;28;20214;-73
2021/07/23 08:28:15;;;;;;;7.70;6.90;;;28.20;99.90;;;;;;5080317;28;20207;-72
2021/07/23 08:30:42;;;;;;;8.20;6.45;;;28.40;99.90;;;;;;5079540;28;20212;-70
2021/07/23 08:33:09;;;;;;;7.53;6.82;;;27.90;99.90;;;;;;5070091;28;20213;-72
2021/07/23 08:35:39;;;;;;;8.85;7.40;;;27.60;99.90;;;;;;5070915;28;20264;-72
2021/07/23 08:38:06;;;;;;;10.20;8.32;;;27.80;99.90;;;;;;5070746;28;20224;-74
2021/07/23 08:40:34;;;;;;;8.73;7.85;;;27.90;99.90;;;;;;5070793;28;20693;-75
2021/07/23 08:43:02;;;;;;;7.20;6.38;;;27.60;99.90;;;;;;5069966;28;20647;-75
2021/07/23 08:45:29;;;;;;;13.80;7.95;;;27.80;99.90;;;;;;5070288;28;20222;-71
2021/07/23 08:47:56;;;;;;;9.90;8.32;;;28.00;99.90;;;;;;5073646;28;20198;-73
2021/07/23 08:50:24;;;;;;;8.45;7.38;;;27.80;99.90;;;;;;5073664;28;20783;-74
2021/07/23 08:52:55;;;;;;;9.15;7.45;;;27.80;99.90;;;;;;5071400;28;20206;-76
2021/07/23 08:55:22;;;;;;;7.63;6.82;;;28.30;99.90;;;;;;5069919;28;20293;-76
2021/07/23 08:57:51;;;;;;;9.15;8.13;;;28.80;99.90;;;;;;5072298;28;20222;-75
2021/07/23 09:00:20;;;;;;;12.13;8.48;;;29.00;99.90;;;;;;5065246;28;20218;-76
2021/07/23 09:02:55;;;;;;;9.80;7.88;;;28.80;99.90;;;;;;5066772;28;20268;-75
2021/07/23 09:05:23;;;;;;;9.98;8.05;;;29.20;99.90;;;;;;5069521;28;20206;-75
2021/07/23 09:07:52;;;;;;;12.75;8.20;;;28.70;99.90;;;;;;5070363;28;20202;-74
2021/07/23 09:10:23;;;;;;;8.52;7.05;;;29.00;99.90;;;;;;5071464;28;20721;-76
2021/07/23 09:12:52;;;;;;;7.55;6.93;;;28.80;99.90;;;;;;5071462;28;20238;-75
2021/07/23 09:15:22;;;;;;;9.68;7.78;;;29.10;99.90;;;;;;5071637;28;20222;-74
2021/07/23 09:17:49;;;;;;;7.45;6.82;;;29.30;99.90;;;;;;5071527;28;20642;-75
2021/07/23 09:20:20;;;;;;;7.78;7.05;;;29.30;99.90;;;;;;5071130;28;20206;-74
2021/07/23 09:22:49;;;;;;;7.65;6.90;;;29.30;99.90;;;;;;5069694;28;20202;-75
2021/07/23 09:25:36;;;;;;;10.40;7.00;;;29.30;99.90;;;;;;5071167;28;20222;-76
2021/07/23 09:28:18;;;;;;;8.13;7.32;;;29.60;99.90;;;;;;5071587;28;20199;-75
2021/07/23 09:30:46;;;;;;;8.50;7.40;;;29.90;99.90;;;;;;5071405;28;20234;-77
2021/07/23 09:33:13;;;;;;;7.78;6.90;;;30.10;99.90;;;;;;5069923;28;20661;-75
2021/07/23 09:35:51;;;;;;;9.85;7.30;;;29.80;99.90;;;;;;5071502;28;20259;-74
2021/07/23 09:38:20;;;;;;;7.75;7.05;;;30.30;99.90;;;;;;5070866;28;20259;-74
2021/07/23 09:40:49;;;;;;;9.35;7.30;;;31.00;99.90;;;;;;5071232;28;20214;-76
2021/07/23 09:43:32;;;;;;;8.07;6.57;;;31.70;99.90;;;;;;5070437;28;20292;-75
2021/07/23 09:46:26;;;;;;;9.90;7.93;;;31.50;99.90;;;;;;5071420;28;20703;-75
2021/07/23 09:48:54;;;;;;;7.30;6.60;;;30.90;99.90;;;;;;5068265;28;20560;-76
2021/07/23 09:51:22;;;;;;;10.82;6.80;;;31.40;99.90;;;;;;5070195;28;20259;-76
2021/07/23 09:53:49;;;;;;;7.60;6.35;;;32.60;99.90;;;;;;5070829;28;20251;-75
2021/07/23 09:56:18;;;;;;;10.40;6.60;;;33.80;99.90;;;;;;5070700;28;20202;-76
2021/07/23 09:58:49;;;;;;;12.07;7.43;;;33.00;99.90;;;;;;5071089;28;20244;-77
2021/07/23 10:01:22;;;;;;;7.30;6.60;;;33.40;99.90;;;;;;5070777;28;20221;-75
2021/07/23 10:03:51;;;;;;;9.38;6.53;;;33.80;99.90;;;;;;5070702;28;20676;-75
2021/07/23 10:06:26;;;;;;;10.25;7.30;;;35.70;99.90;;;;;;5070243;28;20600;-77
2021/07/23 10:08:56;;;;;;;9.73;7.47;;;36.10;99.90;;;;;;5070520;28;20668;-75
2021/07/23 10:11:25;;;;;;;7.20;6.45;;;36.70;99.90;;;;;;5070430;28;20693;-75
2021/07/23 10:13:56;;;;;;;7.22;6.55;;;34.50;99.90;;;;;;5070585;28;20296;-75
2021/07/23 10:16:24;;;;;;;9.55;7.15;;;34.30;99.90;;;;;;5070499;28;20206;-74
2021/07/23 10:18:52;;;;;;;7.40;6.72;;;35.20;99.90;;;;;;5070233;28;20301;-75
2021/07/23 10:21:19;;;;;;;7.32;6.63;;;33.00;99.90;;;;;;5070327;28;20255;-75
2021/07/23 10:23:47;;;;;;;9.55;6.85;;;33.40;99.90;;;;;;5070634;28;20201;-76
2021/07/23 10:26:14;;;;;;;6.93;6.32;;;34.60;99.90;;;;;;5069872;28;20209;-75
2021/07/23 10:28:57;;;;;;;7.20;6.50;;;33.60;99.90;;;;;;5070546;28;20661;-76
2021/07/23 10:31:49;;;;;;;7.75;5.95;;;33.30;99.90;;;;;;5069924;28;20204;-75
2021/07/23 10:34:35;;;;;;;7.40;6.68;;;33.30;99.90;;;;;;5069325;28;20231;-76
2021/07/23 10:37:02;;;;;;;5.88;5.38;;;33.30;99.90;;;;;;5070379;28;20668;-76
2021/07/23 10:39:29;;;;;;;7.25;6.55;;;33.00;99.90;;;;;;5069888;28;20537;-76
2021/07/23 10:42:30;;;;;;;8.43;7.13;;;31.90;99.90;;;;;;5070765;28;20213;-75
2021/07/23 10:44:58;;;;;;;11.05;7.53;;;31.70;99.90;;;;;;5066300;28;20197;-75
2021/07/23 10:47:39;;;;;;;7.05;6.45;;;32.10;99.90;;;;;;5070119;28;20206;-74
2021/07/23 10:50:08;;;;;;;6.65;6.05;;;32.20;99.90;;;;;;5070240;28;20262;-76
2021/07/23 10:52:36;;;;;;;8.38;7.40;;;31.70;99.90;;;;;;5070631;28;20235;-75
2021/07/23 10:55:20;;;;;;;9.40;7.70;;;31.60;99.90;;;;;;5070868;28;20205;-76
2021/07/23 10:58:21;;;;;;;7.45;6.75;;;32.20;99.90;;;;;;5070272;28;20737;-75
2021/07/23 11:00:51;;;;;;;7.90;7.20;;;31.80;99.90;;;;;;5069835;28;20208;-74
2021/07/23 11:03:46;;;;;;;9.13;7.50;;;31.70;99.90;;;;;;5069798;28;20296;-74
2021/07/23 11:06:21;;;;;;;8.40;7.10;;;32.00;99.90;;;;;;5069824;28;20554;-75
2021/07/23 11:08:50;;;;;;;7.78;7.05;;;32.30;99.90;;;;;;5070168;28;20243;-75
2021/07/23 11:11:18;;;;;;;7.15;6.55;;;31.50;99.90;;;;;;5069908;28;20650;-74
2021/07/23 11:13:45;;;;;;;8.95;7.57;;;31.20;99.90;;;;;;5070348;28;20263;-76
2021/07/23 11:16:15;;;;;;;8.20;7.43;;;31.50;99.90;;;;;;5069758;28;20292;-75
2021/07/23 11:18:53;;;;;;;8.18;7.18;;;32.30;99.90;;;;;;5070130;28;20209;-75
2021/07/23 11:21:20;;;;;;;8.57;7.07;;;32.50;99.90;;;;;;5069319;28;20205;-75
2021/07/23 11:23:48;;;;;;;8.52;7.55;;;32.00;99.90;;;;;;5070317;28;20255;-75
2021/07/23 11:26:24;;;;;;;12.80;7.93;;;31.60;99.90;;;;;;5069261;28;20297;-75
2021/07/23 11:28:52;;;;;;;8.20;7.15;;;31.30;99.90;;;;;;5070004;28;20205;-75
2021/07/23 11:31:34;;;;;;;8.43;6.97;;;31.30;99.90;;;;;;5069322;28;20275;-76
2021/07/23 11:34:22;;;;;;;8.95;7.90;;;31.70;99.90;;;;;;5070136;28;20300;-74
2021/07/23 11:36:49;;;;;;;10.90;8.23;;;31.90;99.90;;;;;;5070047;28;20206;-75
2021/07/23 11:39:17;;;;;;;10.05;7.30;;;31.70;99.90;;;;;;5069409;28;20263;-75
2021/07/23 11:41:58;;;;;;;11.13;8.07;;;31.40;99.90;;;;;;5069913;28;20213;-75
2021/07/23 11:44:25;;;;;;;9.35;7.63;;;31.80;99.90;;;;;;5069721;28;20212;-74
2021/07/23 11:46:54;;;;;;;9.43;8.00;;;31.70;99.90;;;;;;5069868;28;20284;-75
2021/07/23 11:49:21;;;;;;;8.18;7.20;;;31.40;99.90;;;;;;5069559;28;20209;-75
2021/07/23 11:51:48;;;;;;;12.00;7.90;;;31.60;99.90;;;;;;5069453;28;20561;-75
2021/07/23 11:54:19;;;;;;;8.82;7.53;;;31.90;99.90;;;;;;5069511;28;20630;-74
2021/07/23 11:56:46;;;;;;;8.15;7.45;;;31.80;99.90;;;;;;5072057;28;20677;-75
2021/07/23 11:59:13;;;;;;;10.10;8.80;;;31.50;99.90;;;;;;5072842;28;20677;-75
2021/07/23 12:01:41;;;;;;;8.23;7.53;;;31.70;99.90;;;;;;5073168;28;20213;-75
2021/07/23 12:04:10;;;;;;;10.77;8.00;;;32.00;99.90;;;;;;5073239;28;20259;-74
2021/07/23 12:06:39;;;;;;;10.43;8.57;;;32.10;99.90;;;;;;5073670;28;20209;-74
2021/07/23 12:09:09;;;;;;;10.90;8.88;;;32.20;99.90;;;;;;5073042;28;20674;-74
2021/07/23 12:11:36;;;;;;;9.48;8.50;;;31.80;99.90;;;;;;5073350;28;20237;-76
2021/07/23 12:14:07;;;;;;;9.50;8.63;;;31.50;99.90;;;;;;5073294;28;20259;-74
2021/07/23 12:16:34;;;;;;;10.88;8.95;;;31.60;99.90;;;;;;5072941;28;20255;-76
2021/07/23 12:19:04;;;;;;;11.13;9.13;;;31.20;99.90;;;;;;5072857;28;20661;-75
2021/07/23 12:21:33;;;;;;;13.25;8.52;;;31.60;99.90;;;;;;5072532;28;20216;-74
2021/07/23 12:24:04;;;;;;;10.98;8.65;;;32.20;99.90;;;;;;5072877;28;20262;-74
2021/07/23 12:26:34;;;;;;;10.13;8.63;;;32.40;99.90;;;;;;5072222;28;20235;-75
2021/07/23 12:29:01;;;;;;;9.80;8.10;;;32.50;99.90;;;;;;5072779;28;20237;-76
2021/07/23 12:31:29;;;;;;;12.40;8.82;;;32.20;99.90;;;;;;5072125;28;20240;-75
2021/07/23 12:34:06;;;;;;;8.75;7.88;;;32.30;99.90;;;;;;5071927;28;20622;-73
2021/07/23 12:36:46;;;;;;;10.50;8.32;;;32.70;99.90;;;;;;5072165;28;20615;-75
2021/07/23 12:39:14;;;;;;;8.98;8.18;;;32.90;99.90;;;;;;5072442;28;20209;-75
2021/07/23 12:41:41;;;;;;;10.25;9.25;;;32.60;99.90;;;;;;5072422;28;20209;-75
2021/07/23 12:44:10;;;;;;;8.65;7.85;;;33.00;99.90;;;;;;5072267;28;20563;-76
2021/07/23 12:46:38;;;;;;;12.15;8.65;;;33.20;99.90;;;;;;5072396;28;20198;-74
2021/07/23 12:49:16;;;;;;;11.35;7.97;;;33.60;99.90;;;;;;5073010;28;20221;-74
2021/07/23 12:51:45;;;;;;;10.27;7.68;;;33.40;99.90;;;;;;5072170;28;20220;-75
2021/07/23 12:54:13;;;;;;;11.15;9.27;;;33.10;99.90;;;;;;5071781;28;20205;-75